sensor_id;sensor_type;location;lat;lon;timestamp;temperature;humidity
10057;DHT22;5068;51.286;7.518;2024-01-11T00:01:10;-7.40;55.80
10057;DHT22;5068;51.286;7.518;2024-01-11T00:02:43;-7.40;55.70
10057;DHT22;5068;51.286;7.518;2024-01-11T00:04:18;-7.50;55.60
10057;DHT22;5068;51.286;7.518;2024-01-11T00:05:50;-7.50;55.60
10057;DHT22;5068;51.286;7.518;2024-01-11T00:07:24;-7.50;55.60
10057;DHT22;5068;51.286;7.518;2024-01-11T00:08:56;-7.50;55.60
10057;DHT22;5068;51.286;7.518;2024-01-11T00:10:29;-7.50;55.60
10057;DHT22;5068;51.286;7.518;2024-01-11T00:12:02;-7.50;55.60
10057;DHT22;5068;51.286;7.518;2024-01-11T00:13:35;-7.50;55.60
10057;DHT22;5068;51.286;7.518;2024-01-11T00:15:08;-7.50;55.60
10057;DHT22;5068;51.286;7.518;2024-01-11T00:16:41;-7.50;56.30
10057;DHT22;5068;51.286;7.518;2024-01-11T00:18:14;-7.60;55.50
10057;DHT22;5068;51.286;7.518;2024-01-11T00:19:51;-7.60;55.50
10057;DHT22;5068;51.286;7.518;2024-01-11T00:21:24;-7.60;55.50
10057;DHT22;5068;51.286;7.518;2024-01-11T00:22:57;-7.60;55.60
10057;DHT22;5068;51.286;7.518;2024-01-11T00:24:29;-7.60;55.50
10057;DHT22;5068;51.286;7.518;2024-01-11T00:26:12;-7.60;55.50
10057;DHT22;5068;51.286;7.518;2024-01-11T00:27:45;-7.60;55.60
10057;DHT22;5068;51.286;7.518;2024-01-11T00:29:17;-7.60;55.50
10057;DHT22;5068;51.286;7.518;2024-01-11T00:30:51;-7.60;55.50
10057;DHT22;5068;51.286;7.518;2024-01-11T00:32:23;-7.60;55.50
10057;DHT22;5068;51.286;7.518;2024-01-11T00:33:56;-7.70;55.50
10057;DHT22;5068;51.286;7.518;2024-01-11T00:35:30;-7.70;55.50
10057;DHT22;5068;51.286;7.518;2024-01-11T00:37:04;-7.70;55.50
10057;DHT22;5068;51.286;7.518;2024-01-11T00:38:39;-7.70;55.50
10057;DHT22;5068;51.286;7.518;2024-01-11T00:40:13;-7.70;55.50
10057;DHT22;5068;51.286;7.518;2024-01-11T00:41:45;-7.70;55.60
10057;DHT22;5068;51.286;7.518;2024-01-11T00:43:18;-7.70;55.70
10057;DHT22;5068;51.286;7.518;2024-01-11T00:44:51;-7.70;55.70
10057;DHT22;5068;51.286;7.518;2024-01-11T00:46:24;-7.70;55.80
10057;DHT22;5068;51.286;7.518;2024-01-11T00:47:57;-7.70;55.70
10057;DHT22;5068;51.286;7.518;2024-01-11T00:49:30;-7.70;55.70
10057;DHT22;5068;51.286;7.518;2024-01-11T00:51:05;-7.70;55.70
10057;DHT22;5068;51.286;7.518;2024-01-11T00:52:39;-7.70;55.70
10057;DHT22;5068;51.286;7.518;2024-01-11T00:54:11;-7.70;55.60
10057;DHT22;5068;51.286;7.518;2024-01-11T00:55:44;-7.70;55.50
10057;DHT22;5068;51.286;7.518;2024-01-11T00:57:17;-7.70;55.50
10057;DHT22;5068;51.286;7.518;2024-01-11T00:58:53;-7.70;55.50
10057;DHT22;5068;51.286;7.518;2024-01-11T01:00:26;-7.80;55.40
10057;DHT22;5068;51.286;7.518;2024-01-11T01:01:59;-7.80;55.40
10057;DHT22;5068;51.286;7.518;2024-01-11T01:03:32;-7.80;55.40
10057;DHT22;5068;51.286;7.518;2024-01-11T01:05:05;-7.80;55.40
10057;DHT22;5068;51.286;7.518;2024-01-11T01:06:41;-7.80;55.50
10057;DHT22;5068;51.286;7.518;2024-01-11T01:08:31;-7.80;55.50
10057;DHT22;5068;51.286;7.518;2024-01-11T01:10:06;-7.80;55.50
10057;DHT22;5068;51.286;7.518;2024-01-11T01:11:40;-7.80;55.60
10057;DHT22;5068;51.286;7.518;2024-01-11T01:13:13;-7.80;55.60
10057;DHT22;5068;51.286;7.518;2024-01-11T01:14:45;-7.80;55.60
10057;DHT22;5068;51.286;7.518;2024-01-11T01:16:19;-7.80;55.60
10057;DHT22;5068;51.286;7.518;2024-01-11T01:17:51;-7.80;55.60
10057;DHT22;5068;51.286;7.518;2024-01-11T01:19:25;-7.90;55.50
10057;DHT22;5068;51.286;7.518;2024-01-11T01:20:57;-7.80;55.50
10057;DHT22;5068;51.286;7.518;2024-01-11T01:22:32;-7.90;55.40
10057;DHT22;5068;51.286;7.518;2024-01-11T01:24:04;-7.90;55.40
10057;DHT22;5068;51.286;7.518;2024-01-11T01:25:38;-7.90;55.40
10057;DHT22;5068;51.286;7.518;2024-01-11T01:27:10;-7.90;55.40
10057;DHT22;5068;51.286;7.518;2024-01-11T01:28:43;-7.90;55.40
10057;DHT22;5068;51.286;7.518;2024-01-11T01:30:16;-7.90;55.40
10057;DHT22;5068;51.286;7.518;2024-01-11T01:31:49;-7.90;55.40
10057;DHT22;5068;51.286;7.518;2024-01-11T01:33:21;-7.90;55.40
10057;DHT22;5068;51.286;7.518;2024-01-11T01:34:55;-7.90;55.40
10057;DHT22;5068;51.286;7.518;2024-01-11T01:36:27;-7.90;55.40
10057;DHT22;5068;51.286;7.518;2024-01-11T01:38:02;-7.90;55.40
10057;DHT22;5068;51.286;7.518;2024-01-11T01:39:37;-8.00;55.50
10057;DHT22;5068;51.286;7.518;2024-01-11T01:41:10;-7.90;55.50
10057;DHT22;5068;51.286;7.518;2024-01-11T01:42:43;-8.00;55.40
10057;DHT22;5068;51.286;7.518;2024-01-11T01:44:16;-8.00;55.50
10057;DHT22;5068;51.286;7.518;2024-01-11T01:45:50;-8.00;55.40
10057;DHT22;5068;51.286;7.518;2024-01-11T01:47:22;-8.00;55.50
10057;DHT22;5068;51.286;7.518;2024-01-11T01:48:58;-8.00;55.50
10057;DHT22;5068;51.286;7.518;2024-01-11T01:50:31;-8.00;55.60
10057;DHT22;5068;51.286;7.518;2024-01-11T01:52:06;-8.00;55.60
10057;DHT22;5068;51.286;7.518;2024-01-11T01:53:41;-8.00;55.60
10057;DHT22;5068;51.286;7.518;2024-01-11T01:55:14;-8.00;55.60
10057;DHT22;5068;51.286;7.518;2024-01-11T01:56:48;-8.00;55.70
10057;DHT22;5068;51.286;7.518;2024-01-11T01:58:22;-8.00;55.70
10057;DHT22;5068;51.286;7.518;2024-01-11T01:59:55;-8.00;55.70
10057;DHT22;5068;51.286;7.518;2024-01-11T02:01:29;-8.00;55.70
10057;DHT22;5068;51.286;7.518;2024-01-11T02:03:04;-8.00;55.70
10057;DHT22;5068;51.286;7.518;2024-01-11T02:04:37;-8.00;55.60
10057;DHT22;5068;51.286;7.518;2024-01-11T02:06:11;-8.00;55.50
10057;DHT22;5068;51.286;7.518;2024-01-11T02:07:44;-8.00;55.50
10057;DHT22;5068;51.286;7.518;2024-01-11T02:09:18;-8.00;55.50
10057;DHT22;5068;51.286;7.518;2024-01-11T02:10:52;-8.00;55.40
10057;DHT22;5068;51.286;7.518;2024-01-11T02:12:25;-8.00;55.40
10057;DHT22;5068;51.286;7.518;2024-01-11T02:13:59;-8.00;55.40
10057;DHT22;5068;51.286;7.518;2024-01-11T02:15:32;-8.00;55.30
10057;DHT22;5068;51.286;7.518;2024-01-11T02:17:05;-8.10;55.20
10057;DHT22;5068;51.286;7.518;2024-01-11T02:18:38;-8.10;55.20
10057;DHT22;5068;51.286;7.518;2024-01-11T02:20:11;-8.10;55.20
10057;DHT22;5068;51.286;7.518;2024-01-11T02:21:46;-8.10;55.20
10057;DHT22;5068;51.286;7.518;2024-01-11T02:23:24;-8.10;55.20
10057;DHT22;5068;51.286;7.518;2024-01-11T02:25:00;-8.10;55.20
10057;DHT22;5068;51.286;7.518;2024-01-11T02:26:34;-8.10;55.20
10057;DHT22;5068;51.286;7.518;2024-01-11T02:28:06;-8.20;55.20
10057;DHT22;5068;51.286;7.518;2024-01-11T02:29:40;-8.20;55.20
10057;DHT22;5068;51.286;7.518;2024-01-11T02:31:13;-8.20;55.40
10057;DHT22;5068;51.286;7.518;2024-01-11T02:32:48;-8.20;55.50
10057;DHT22;5068;51.286;7.518;2024-01-11T02:34:22;-8.20;55.50
10057;DHT22;5068;51.286;7.518;2024-01-11T02:35:57;-8.20;55.50
10057;DHT22;5068;51.286;7.518;2024-01-11T02:37:29;-8.20;55.40
10057;DHT22;5068;51.286;7.518;2024-01-11T02:39:03;-8.20;55.40
10057;DHT22;5068;51.286;7.518;2024-01-11T02:40:38;-8.20;55.40
10057;DHT22;5068;51.286;7.518;2024-01-11T02:42:13;-8.20;55.40
10057;DHT22;5068;51.286;7.518;2024-01-11T02:43:46;-8.30;55.30
10057;DHT22;5068;51.286;7.518;2024-01-11T02:45:21;-8.20;55.40
10057;DHT22;5068;51.286;7.518;2024-01-11T02:46:54;-8.20;55.40
10057;DHT22;5068;51.286;7.518;2024-01-11T02:48:28;-8.20;55.40
10057;DHT22;5068;51.286;7.518;2024-01-11T02:50:00;-8.30;55.30
10057;DHT22;5068;51.286;7.518;2024-01-11T02:51:34;-8.30;55.40
10057;DHT22;5068;51.286;7.518;2024-01-11T02:53:07;-8.30;55.40
10057;DHT22;5068;51.286;7.518;2024-01-11T02:54:41;-8.30;55.40
10057;DHT22;5068;51.286;7.518;2024-01-11T02:56:16;-8.30;55.40
10057;DHT22;5068;51.286;7.518;2024-01-11T02:57:49;-8.30;55.40
10057;DHT22;5068;51.286;7.518;2024-01-11T02:59:21;-8.30;55.30
10057;DHT22;5068;51.286;7.518;2024-01-11T03:00:55;-8.30;55.30
10057;DHT22;5068;51.286;7.518;2024-01-11T03:02:28;-8.30;55.40
10057;DHT22;5068;51.286;7.518;2024-01-11T03:04:01;-8.30;55.30
10057;DHT22;5068;51.286;7.518;2024-01-11T03:05:34;-8.30;55.40
10057;DHT22;5068;51.286;7.518;2024-01-11T03:07:08;-8.40;55.30
10057;DHT22;5068;51.286;7.518;2024-01-11T03:08:41;-8.30;55.40
10057;DHT22;5068;51.286;7.518;2024-01-11T03:10:14;-8.40;55.30
10057;DHT22;5068;51.286;7.518;2024-01-11T03:11:48;-8.40;55.40
10057;DHT22;5068;51.286;7.518;2024-01-11T03:13:21;-8.40;55.40
10057;DHT22;5068;51.286;7.518;2024-01-11T03:14:54;-8.40;56.00
10057;DHT22;5068;51.286;7.518;2024-01-11T03:16:26;-8.40;55.40
10057;DHT22;5068;51.286;7.518;2024-01-11T03:18:00;-8.40;55.40
10057;DHT22;5068;51.286;7.518;2024-01-11T03:19:33;-8.40;55.40
10057;DHT22;5068;51.286;7.518;2024-01-11T03:21:06;-8.40;55.40
10057;DHT22;5068;51.286;7.518;2024-01-11T03:22:45;-8.40;55.40
10057;DHT22;5068;51.286;7.518;2024-01-11T03:24:19;-8.40;55.40
10057;DHT22;5068;51.286;7.518;2024-01-11T03:25:51;-8.40;55.40
10057;DHT22;5068;51.286;7.518;2024-01-11T03:27:26;-8.40;55.30
10057;DHT22;5068;51.286;7.518;2024-01-11T03:28:58;-8.40;55.20
10057;DHT22;5068;51.286;7.518;2024-01-11T03:30:32;-8.40;55.20
10057;DHT22;5068;51.286;7.518;2024-01-11T03:32:05;-8.40;55.20
10057;DHT22;5068;51.286;7.518;2024-01-11T03:33:39;-8.40;55.20
10057;DHT22;5068;51.286;7.518;2024-01-11T03:35:12;-8.40;55.20
10057;DHT22;5068;51.286;7.518;2024-01-11T03:36:45;-8.40;55.20
10057;DHT22;5068;51.286;7.518;2024-01-11T03:38:17;-8.40;55.20
10057;DHT22;5068;51.286;7.518;2024-01-11T03:39:51;-8.40;55.20
10057;DHT22;5068;51.286;7.518;2024-01-11T03:41:24;-8.50;55.00
10057;DHT22;5068;51.286;7.518;2024-01-11T03:42:58;-8.50;55.00
10057;DHT22;5068;51.286;7.518;2024-01-11T03:44:31;-8.50;55.10
10057;DHT22;5068;51.286;7.518;2024-01-11T03:46:04;-8.50;55.00
10057;DHT22;5068;51.286;7.518;2024-01-11T03:47:37;-8.50;55.00
10057;DHT22;5068;51.286;7.518;2024-01-11T03:49:10;-8.50;54.90
10057;DHT22;5068;51.286;7.518;2024-01-11T03:50:43;-8.50;54.90
10057;DHT22;5068;51.286;7.518;2024-01-11T03:52:16;-8.50;54.90
10057;DHT22;5068;51.286;7.518;2024-01-11T03:53:49;-8.60;54.90
10057;DHT22;5068;51.286;7.518;2024-01-11T03:55:22;-8.50;54.90
10057;DHT22;5068;51.286;7.518;2024-01-11T03:56:56;-8.50;54.90
10057;DHT22;5068;51.286;7.518;2024-01-11T03:58:30;-8.60;54.90
10057;DHT22;5068;51.286;7.518;2024-01-11T04:00:06;-8.60;54.90
10057;DHT22;5068;51.286;7.518;2024-01-11T04:01:42;-8.60;55.00
10057;DHT22;5068;51.286;7.518;2024-01-11T04:03:16;-8.60;55.00
10057;DHT22;5068;51.286;7.518;2024-01-11T04:04:48;-8.60;55.00
10057;DHT22;5068;51.286;7.518;2024-01-11T04:06:22;-8.60;55.00
10057;DHT22;5068;51.286;7.518;2024-01-11T04:07:55;-8.60;55.00
10057;DHT22;5068;51.286;7.518;2024-01-11T04:09:29;-8.60;55.00
10057;DHT22;5068;51.286;7.518;2024-01-11T04:11:02;-8.60;55.00
10057;DHT22;5068;51.286;7.518;2024-01-11T04:12:36;-8.60;54.90
10057;DHT22;5068;51.286;7.518;2024-01-11T04:14:10;-8.60;54.90
10057;DHT22;5068;51.286;7.518;2024-01-11T04:15:44;-8.70;54.80
10057;DHT22;5068;51.286;7.518;2024-01-11T04:17:16;-8.70;54.80
10057;DHT22;5068;51.286;7.518;2024-01-11T04:18:50;-8.70;54.80
10057;DHT22;5068;51.286;7.518;2024-01-11T04:20:23;-8.70;54.80
10057;DHT22;5068;51.286;7.518;2024-01-11T04:21:56;-8.70;54.80
10057;DHT22;5068;51.286;7.518;2024-01-11T04:23:29;-8.70;54.90
10057;DHT22;5068;51.286;7.518;2024-01-11T04:25:02;-8.70;54.80
10057;DHT22;5068;51.286;7.518;2024-01-11T04:26:36;-8.70;54.90
10057;DHT22;5068;51.286;7.518;2024-01-11T04:28:09;-8.70;54.80
10057;DHT22;5068;51.286;7.518;2024-01-11T04:29:43;-8.70;54.80
10057;DHT22;5068;51.286;7.518;2024-01-11T04:31:16;-8.70;54.80
10057;DHT22;5068;51.286;7.518;2024-01-11T04:32:50;-8.70;54.70
10057;DHT22;5068;51.286;7.518;2024-01-11T04:34:22;-8.80;54.60
10057;DHT22;5068;51.286;7.518;2024-01-11T04:35:56;-8.80;54.60
10057;DHT22;5068;51.286;7.518;2024-01-11T04:37:28;-8.80;54.60
10057;DHT22;5068;51.286;7.518;2024-01-11T04:39:01;-8.80;54.60
10057;DHT22;5068;51.286;7.518;2024-01-11T04:40:34;-8.80;54.70
10057;DHT22;5068;51.286;7.518;2024-01-11T04:42:07;-8.80;54.60
10057;DHT22;5068;51.286;7.518;2024-01-11T04:43:41;-8.80;54.60
10057;DHT22;5068;51.286;7.518;2024-01-11T04:45:16;-8.80;54.70
10057;DHT22;5068;51.286;7.518;2024-01-11T04:46:50;-8.80;54.60
10057;DHT22;5068;51.286;7.518;2024-01-11T04:48:22;-8.90;54.60
10057;DHT22;5068;51.286;7.518;2024-01-11T04:49:55;-8.90;54.60
10057;DHT22;5068;51.286;7.518;2024-01-11T04:51:28;-8.90;54.60
10057;DHT22;5068;51.286;7.518;2024-01-11T04:53:01;-8.90;54.60
10057;DHT22;5068;51.286;7.518;2024-01-11T04:54:34;-8.90;54.60
10057;DHT22;5068;51.286;7.518;2024-01-11T04:56:08;-8.90;54.60
10057;DHT22;5068;51.286;7.518;2024-01-11T04:57:42;-8.90;54.60
10057;DHT22;5068;51.286;7.518;2024-01-11T04:59:15;-8.90;54.60
10057;DHT22;5068;51.286;7.518;2024-01-11T05:00:50;-8.90;54.60
10057;DHT22;5068;51.286;7.518;2024-01-11T05:02:22;-8.90;54.60
10057;DHT22;5068;51.286;7.518;2024-01-11T05:03:56;-8.90;54.60
10057;DHT22;5068;51.286;7.518;2024-01-11T05:05:28;-9.00;54.50
10057;DHT22;5068;51.286;7.518;2024-01-11T05:07:02;-9.00;54.60
10057;DHT22;5068;51.286;7.518;2024-01-11T05:08:34;-9.00;55.10
10057;DHT22;5068;51.286;7.518;2024-01-11T05:10:08;-9.00;55.20
10057;DHT22;5068;51.286;7.518;2024-01-11T05:11:41;-9.00;54.80
10057;DHT22;5068;51.286;7.518;2024-01-11T05:13:14;-9.00;54.70
10057;DHT22;5068;51.286;7.518;2024-01-11T05:14:46;-9.00;54.80
10057;DHT22;5068;51.286;7.518;2024-01-11T05:16:22;-9.00;54.70
10057;DHT22;5068;51.286;7.518;2024-01-11T05:17:55;-9.00;54.70
10057;DHT22;5068;51.286;7.518;2024-01-11T05:19:29;-9.00;54.60
10057;DHT22;5068;51.286;7.518;2024-01-11T05:21:02;-9.10;54.40
10057;DHT22;5068;51.286;7.518;2024-01-11T05:22:35;-9.10;54.50
10057;DHT22;5068;51.286;7.518;2024-01-11T05:24:08;-9.10;54.40
10057;DHT22;5068;51.286;7.518;2024-01-11T05:25:43;-9.10;54.50
10057;DHT22;5068;51.286;7.518;2024-01-11T05:27:16;-9.10;54.60
10057;DHT22;5068;51.286;7.518;2024-01-11T05:28:49;-9.10;54.60
10057;DHT22;5068;51.286;7.518;2024-01-11T05:30:22;-9.10;54.60
10057;DHT22;5068;51.286;7.518;2024-01-11T05:32:00;-9.10;54.60
10057;DHT22;5068;51.286;7.518;2024-01-11T05:33:35;-9.10;54.70
10057;DHT22;5068;51.286;7.518;2024-01-11T05:35:08;-9.10;54.70
10057;DHT22;5068;51.286;7.518;2024-01-11T05:36:42;-9.10;54.70
10057;DHT22;5068;51.286;7.518;2024-01-11T05:38:14;-9.10;54.70
10057;DHT22;5068;51.286;7.518;2024-01-11T05:39:47;-9.10;54.60
10057;DHT22;5068;51.286;7.518;2024-01-11T05:41:20;-9.20;54.60
10057;DHT22;5068;51.286;7.518;2024-01-11T05:42:53;-9.10;54.70
10057;DHT22;5068;51.286;7.518;2024-01-11T05:44:26;-9.20;54.60
10057;DHT22;5068;51.286;7.518;2024-01-11T05:45:59;-9.20;54.60
10057;DHT22;5068;51.286;7.518;2024-01-11T05:47:33;-9.20;54.60
10057;DHT22;5068;51.286;7.518;2024-01-11T05:49:06;-9.20;54.50
10057;DHT22;5068;51.286;7.518;2024-01-11T05:50:40;-9.20;54.60
10057;DHT22;5068;51.286;7.518;2024-01-11T05:52:13;-9.20;54.60
10057;DHT22;5068;51.286;7.518;2024-01-11T05:53:46;-9.20;54.50
10057;DHT22;5068;51.286;7.518;2024-01-11T05:55:18;-9.20;54.50
10057;DHT22;5068;51.286;7.518;2024-01-11T05:56:52;-9.20;54.60
10057;DHT22;5068;51.286;7.518;2024-01-11T05:58:27;-9.20;54.60
10057;DHT22;5068;51.286;7.518;2024-01-11T06:00:01;-9.20;54.60
10057;DHT22;5068;51.286;7.518;2024-01-11T06:01:40;-9.20;54.60
10057;DHT22;5068;51.286;7.518;2024-01-11T06:03:16;-9.30;54.60
10057;DHT22;5068;51.286;7.518;2024-01-11T06:04:48;-9.30;54.50
10057;DHT22;5068;51.286;7.518;2024-01-11T06:06:22;-9.30;55.10
10057;DHT22;5068;51.286;7.518;2024-01-11T06:07:54;-9.30;54.50
10057;DHT22;5068;51.286;7.518;2024-01-11T06:09:27;-9.30;54.50
10057;DHT22;5068;51.286;7.518;2024-01-11T06:11:00;-9.30;54.50
10057;DHT22;5068;51.286;7.518;2024-01-11T06:12:33;-9.30;54.50
10057;DHT22;5068;51.286;7.518;2024-01-11T06:14:05;-9.30;54.50
10057;DHT22;5068;51.286;7.518;2024-01-11T06:15:39;-9.30;54.50
10057;DHT22;5068;51.286;7.518;2024-01-11T06:17:11;-9.30;54.40
10057;DHT22;5068;51.286;7.518;2024-01-11T06:18:46;-9.30;54.60
10057;DHT22;5068;51.286;7.518;2024-01-11T06:20:19;-9.30;54.50
10057;DHT22;5068;51.286;7.518;2024-01-11T06:21:52;-9.30;54.60
10057;DHT22;5068;51.286;7.518;2024-01-11T06:23:25;-9.40;54.50
10057;DHT22;5068;51.286;7.518;2024-01-11T06:24:58;-9.30;54.60
10057;DHT22;5068;51.286;7.518;2024-01-11T06:26:31;-9.40;54.50
10057;DHT22;5068;51.286;7.518;2024-01-11T06:28:05;-9.30;54.60
10057;DHT22;5068;51.286;7.518;2024-01-11T06:29:41;-9.40;54.60
10057;DHT22;5068;51.286;7.518;2024-01-11T06:31:14;-9.40;54.50
10057;DHT22;5068;51.286;7.518;2024-01-11T06:32:47;-9.40;55.10
10057;DHT22;5068;51.286;7.518;2024-01-11T06:34:22;-9.40;54.40
10057;DHT22;5068;51.286;7.518;2024-01-11T06:35:55;-9.40;54.40
10057;DHT22;5068;51.286;7.518;2024-01-11T06:37:28;-9.40;54.40
10057;DHT22;5068;51.286;7.518;2024-01-11T06:39:01;-9.40;54.30
10057;DHT22;5068;51.286;7.518;2024-01-11T06:40:33;-9.40;54.30
10057;DHT22;5068;51.286;7.518;2024-01-11T06:42:07;-9.40;54.30
10057;DHT22;5068;51.286;7.518;2024-01-11T06:43:39;-9.40;54.30
10057;DHT22;5068;51.286;7.518;2024-01-11T06:45:12;-9.50;54.30
10057;DHT22;5068;51.286;7.518;2024-01-11T06:46:45;-9.40;54.40
10057;DHT22;5068;51.286;7.518;2024-01-11T06:48:18;-9.50;54.40
10057;DHT22;5068;51.286;7.518;2024-01-11T06:49:52;-9.40;54.40
10057;DHT22;5068;51.286;7.518;2024-01-11T06:51:26;-9.50;54.40
10057;DHT22;5068;51.286;7.518;2024-01-11T06:52:58;-9.50;54.40
10057;DHT22;5068;51.286;7.518;2024-01-11T06:54:32;-9.40;54.40
10057;DHT22;5068;51.286;7.518;2024-01-11T06:56:13;-9.50;54.40
10057;DHT22;5068;51.286;7.518;2024-01-11T06:57:47;-9.50;54.50
10057;DHT22;5068;51.286;7.518;2024-01-11T06:59:20;-9.50;54.40
10057;DHT22;5068;51.286;7.518;2024-01-11T07:00:55;-9.50;55.00
10057;DHT22;5068;51.286;7.518;2024-01-11T07:02:27;-9.50;54.40
10057;DHT22;5068;51.286;7.518;2024-01-11T07:04:00;-9.50;54.40
10057;DHT22;5068;51.286;7.518;2024-01-11T07:05:35;-9.50;54.30
10057;DHT22;5068;51.286;7.518;2024-01-11T07:07:08;-9.50;54.40
10057;DHT22;5068;51.286;7.518;2024-01-11T07:08:41;-9.50;54.20
10057;DHT22;5068;51.286;7.518;2024-01-11T07:10:14;-9.50;54.20
10057;DHT22;5068;51.286;7.518;2024-01-11T07:11:47;-9.50;54.30
10057;DHT22;5068;51.286;7.518;2024-01-11T07:13:20;-9.60;54.20
10057;DHT22;5068;51.286;7.518;2024-01-11T07:14:53;-9.50;54.30
10057;DHT22;5068;51.286;7.518;2024-01-11T07:16:25;-9.50;54.40
10057;DHT22;5068;51.286;7.518;2024-01-11T07:17:59;-9.60;54.30
10057;DHT22;5068;51.286;7.518;2024-01-11T07:19:31;-9.60;54.40
10057;DHT22;5068;51.286;7.518;2024-01-11T07:21:06;-9.50;54.40
10057;DHT22;5068;51.286;7.518;2024-01-11T07:22:39;-9.60;54.40
10057;DHT22;5068;51.286;7.518;2024-01-11T07:24:13;-9.60;54.40
10057;DHT22;5068;51.286;7.518;2024-01-11T07:25:50;-9.60;54.40
10057;DHT22;5068;51.286;7.518;2024-01-11T07:27:22;-9.60;54.40
10057;DHT22;5068;51.286;7.518;2024-01-11T07:28:55;-9.60;54.40
10057;DHT22;5068;51.286;7.518;2024-01-11T07:30:28;-9.60;54.40
10057;DHT22;5068;51.286;7.518;2024-01-11T07:32:01;-9.60;54.40
10057;DHT22;5068;51.286;7.518;2024-01-11T07:33:36;-9.60;54.50
10057;DHT22;5068;51.286;7.518;2024-01-11T07:35:10;-9.60;54.40
10057;DHT22;5068;51.286;7.518;2024-01-11T07:36:52;-9.60;54.40
10057;DHT22;5068;51.286;7.518;2024-01-11T07:38:24;-9.60;54.50
10057;DHT22;5068;51.286;7.518;2024-01-11T07:39:58;-9.60;54.50
10057;DHT22;5068;51.286;7.518;2024-01-11T07:41:30;-9.60;54.50
10057;DHT22;5068;51.286;7.518;2024-01-11T07:43:05;-9.60;54.60
10057;DHT22;5068;51.286;7.518;2024-01-11T07:44:38;-9.60;54.70
10057;DHT22;5068;51.286;7.518;2024-01-11T07:46:11;-9.60;54.70
10057;DHT22;5068;51.286;7.518;2024-01-11T07:47:43;-9.50;54.80
10057;DHT22;5068;51.286;7.518;2024-01-11T07:49:17;-9.60;54.80
10057;DHT22;5068;51.286;7.518;2024-01-11T07:50:50;-9.60;54.80
10057;DHT22;5068;51.286;7.518;2024-01-11T07:52:25;-9.60;54.80
10057;DHT22;5068;51.286;7.518;2024-01-11T07:53:57;-9.60;54.80
10057;DHT22;5068;51.286;7.518;2024-01-11T07:55:32;-9.50;54.90
10057;DHT22;5068;51.286;7.518;2024-01-11T07:57:05;-9.60;54.90
10057;DHT22;5068;51.286;7.518;2024-01-11T07:58:37;-9.60;54.80
10057;DHT22;5068;51.286;7.518;2024-01-11T08:00:11;-9.60;54.80
10057;DHT22;5068;51.286;7.518;2024-01-11T08:01:44;-9.50;54.90
10057;DHT22;5068;51.286;7.518;2024-01-11T08:03:17;-9.50;54.80
10057;DHT22;5068;51.286;7.518;2024-01-11T08:04:50;-9.50;54.90
10057;DHT22;5068;51.286;7.518;2024-01-11T08:06:23;-9.50;54.90
10057;DHT22;5068;51.286;7.518;2024-01-11T08:07:56;-9.50;54.90
10057;DHT22;5068;51.286;7.518;2024-01-11T08:09:33;-9.50;54.90
10057;DHT22;5068;51.286;7.518;2024-01-11T08:11:07;-9.50;54.90
10057;DHT22;5068;51.286;7.518;2024-01-11T08:12:41;-9.50;55.00
10057;DHT22;5068;51.286;7.518;2024-01-11T08:14:13;-9.50;54.90
10057;DHT22;5068;51.286;7.518;2024-01-11T08:15:47;-9.50;54.90
10057;DHT22;5068;51.286;7.518;2024-01-11T08:17:19;-9.40;54.90
10057;DHT22;5068;51.286;7.518;2024-01-11T08:18:53;-9.40;55.00
10057;DHT22;5068;51.286;7.518;2024-01-11T08:20:26;-9.40;55.10
10057;DHT22;5068;51.286;7.518;2024-01-11T08:21:59;-9.40;55.10
10057;DHT22;5068;51.286;7.518;2024-01-11T08:23:44;-9.40;55.20
10057;DHT22;5068;51.286;7.518;2024-01-11T08:25:21;-9.30;55.30
10057;DHT22;5068;51.286;7.518;2024-01-11T08:26:54;-9.30;55.30
10057;DHT22;5068;51.286;7.518;2024-01-11T08:28:27;-9.30;55.30
10057;DHT22;5068;51.286;7.518;2024-01-11T08:30:01;-9.30;55.90
10057;DHT22;5068;51.286;7.518;2024-01-11T08:31:34;-9.30;55.30
10057;DHT22;5068;51.286;7.518;2024-01-11T08:33:11;-9.30;55.20
10057;DHT22;5068;51.286;7.518;2024-01-11T08:34:44;-9.20;55.30
10057;DHT22;5068;51.286;7.518;2024-01-11T08:36:17;-9.20;55.30
10057;DHT22;5068;51.286;7.518;2024-01-11T08:37:50;-9.20;55.30
10057;DHT22;5068;51.286;7.518;2024-01-11T08:39:24;-9.20;55.30
10057;DHT22;5068;51.286;7.518;2024-01-11T08:40:57;-9.20;55.40
10057;DHT22;5068;51.286;7.518;2024-01-11T08:42:31;-9.20;55.50
10057;DHT22;5068;51.286;7.518;2024-01-11T08:44:03;-9.20;55.40
10057;DHT22;5068;51.286;7.518;2024-01-11T08:45:37;-9.20;55.50
10057;DHT22;5068;51.286;7.518;2024-01-11T08:47:10;-9.10;55.60
10057;DHT22;5068;51.286;7.518;2024-01-11T08:48:43;-9.10;55.60
10057;DHT22;5068;51.286;7.518;2024-01-11T08:50:16;-9.10;55.60
10057;DHT22;5068;51.286;7.518;2024-01-11T08:51:55;-9.10;55.70
10057;DHT22;5068;51.286;7.518;2024-01-11T08:53:27;-9.10;55.60
10057;DHT22;5068;51.286;7.518;2024-01-11T08:55:02;-9.10;55.60
10057;DHT22;5068;51.286;7.518;2024-01-11T08:56:36;-9.00;55.80
10057;DHT22;5068;51.286;7.518;2024-01-11T08:58:09;-9.00;55.80
10057;DHT22;5068;51.286;7.518;2024-01-11T08:59:42;-9.00;55.90
10057;DHT22;5068;51.286;7.518;2024-01-11T09:01:16;-9.00;56.00
10057;DHT22;5068;51.286;7.518;2024-01-11T09:02:50;-9.00;56.00
10057;DHT22;5068;51.286;7.518;2024-01-11T09:04:23;-8.90;56.10
10057;DHT22;5068;51.286;7.518;2024-01-11T09:05:55;-8.90;56.10
10057;DHT22;5068;51.286;7.518;2024-01-11T09:07:30;-8.90;56.00
10057;DHT22;5068;51.286;7.518;2024-01-11T09:09:02;-8.90;56.00
10057;DHT22;5068;51.286;7.518;2024-01-11T09:10:43;-8.80;56.10
10057;DHT22;5068;51.286;7.518;2024-01-11T09:12:16;-8.80;56.10
10057;DHT22;5068;51.286;7.518;2024-01-11T09:13:48;-8.80;56.10
10057;DHT22;5068;51.286;7.518;2024-01-11T09:15:22;-8.80;56.20
10057;DHT22;5068;51.286;7.518;2024-01-11T09:16:54;-8.70;56.30
10057;DHT22;5068;51.286;7.518;2024-01-11T09:18:31;-8.70;56.40
10057;DHT22;5068;51.286;7.518;2024-01-11T09:20:04;-8.70;56.50
10057;DHT22;5068;51.286;7.518;2024-01-11T09:21:37;-8.70;56.60
10057;DHT22;5068;51.286;7.518;2024-01-11T09:23:11;-8.60;56.60
10057;DHT22;5068;51.286;7.518;2024-01-11T09:24:43;-8.60;56.70
10057;DHT22;5068;51.286;7.518;2024-01-11T09:26:18;-8.50;56.70
10057;DHT22;5068;51.286;7.518;2024-01-11T09:27:50;-8.50;56.70
10057;DHT22;5068;51.286;7.518;2024-01-11T09:29:24;-8.50;56.70
10057;DHT22;5068;51.286;7.518;2024-01-11T09:30:56;-8.40;56.80
10057;DHT22;5068;51.286;7.518;2024-01-11T09:32:32;-8.40;56.80
10057;DHT22;5068;51.286;7.518;2024-01-11T09:34:04;-8.40;56.90
10057;DHT22;5068;51.286;7.518;2024-01-11T09:35:38;-8.30;56.90
10057;DHT22;5068;51.286;7.518;2024-01-11T09:37:11;-8.30;57.00
10057;DHT22;5068;51.286;7.518;2024-01-11T09:38:45;-8.20;57.10
10057;DHT22;5068;51.286;7.518;2024-01-11T09:40:18;-8.20;57.10
10057;DHT22;5068;51.286;7.518;2024-01-11T09:41:58;-8.10;57.20
10057;DHT22;5068;51.286;7.518;2024-01-11T09:43:38;-8.10;57.30
10057;DHT22;5068;51.286;7.518;2024-01-11T09:45:15;-8.00;57.40
10057;DHT22;5068;51.286;7.518;2024-01-11T09:46:49;-8.00;57.40
10057;DHT22;5068;51.286;7.518;2024-01-11T09:48:22;-7.90;57.40
10057;DHT22;5068;51.286;7.518;2024-01-11T09:49:58;-7.80;57.60
10057;DHT22;5068;51.286;7.518;2024-01-11T09:51:37;-7.80;57.60
10057;DHT22;5068;51.286;7.518;2024-01-11T09:53:12;-7.80;57.50
10057;DHT22;5068;51.286;7.518;2024-01-11T09:54:46;-7.70;57.50
10057;DHT22;5068;51.286;7.518;2024-01-11T09:56:18;-7.60;57.60
10057;DHT22;5068;51.286;7.518;2024-01-11T09:57:56;-7.60;57.60
10057;DHT22;5068;51.286;7.518;2024-01-11T09:59:32;-7.50;57.70
10057;DHT22;5068;51.286;7.518;2024-01-11T10:01:09;-7.40;57.70